sensor_id;sensor_type;location;lat;lon;timestamp;P1;durP1;ratioP1;P2;durP2;ratioP2
39788;SDS011;25478;42.626;23.320;2022-07-05T00:02:03;5.35;;;3.72;;
39788;SDS011;25478;42.626;23.320;2022-07-05T00:04:29;6.30;;;3.60;;
39788;SDS011;25478;42.626;23.320;2022-07-05T00:06:54;6.05;;;4.13;;
39788;SDS011;25478;42.626;23.320;2022-07-05T00:09:40;6.28;;;4.00;;
39788;SDS011;25478;42.626;23.320;2022-07-05T00:12:05;7.40;;;4.07;;
39788;SDS011;25478;42.626;23.320;2022-07-05T00:14:31;7.85;;;3.75;;
39788;SDS011;25478;42.626;23.320;2022-07-05T00:16:56;6.47;;;3.67;;
39788;SDS011;25478;42.626;23.320;2022-07-05T00:19:22;5.82;;;3.55;;
39788;SDS011;25478;42.626;23.320;2022-07-05T00:21:47;6.18;;;3.53;;
39788;SDS011;25478;42.626;23.320;2022-07-05T00:24:13;5.85;;;3.72;;
39788;SDS011;25478;42.626;23.320;2022-07-05T00:26:39;6.07;;;3.70;;
39788;SDS011;25478;42.626;23.320;2022-07-05T00:29:04;8.20;;;4.40;;
39788;SDS011;25478;42.626;23.320;2022-07-05T00:31:30;6.55;;;4.00;;
39788;SDS011;25478;42.626;23.320;2022-07-05T00:33:55;6.68;;;3.85;;
39788;SDS011;25478;42.626;23.320;2022-07-05T00:36:20;6.85;;;4.50;;
39788;SDS011;25478;42.626;23.320;2022-07-05T00:38:46;6.80;;;4.03;;
39788;SDS011;25478;42.626;23.320;2022-07-05T00:41:12;6.68;;;4.45;;
39788;SDS011;25478;42.626;23.320;2022-07-05T00:43:37;8.20;;;4.30;;
39788;SDS011;25478;42.626;23.320;2022-07-05T00:46:20;10.50;;;4.80;;
39788;SDS011;25478;42.626;23.320;2022-07-05T00:48:45;6.55;;;4.20;;
39788;SDS011;25478;42.626;23.320;2022-07-05T00:51:11;8.50;;;4.85;;
39788;SDS011;25478;42.626;23.320;2022-07-05T00:53:36;7.30;;;4.35;;
39788;SDS011;25478;42.626;23.320;2022-07-05T00:56:03;9.10;;;5.05;;
39788;SDS011;25478;42.626;23.320;2022-07-05T00:58:30;7.30;;;4.70;;
39788;SDS011;25478;42.626;23.320;2022-07-05T01:00:58;7.80;;;5.13;;
39788;SDS011;25478;42.626;23.320;2022-07-05T01:03:24;6.90;;;4.82;;
39788;SDS011;25478;42.626;23.320;2022-07-05T01:05:49;8.57;;;4.78;;
39788;SDS011;25478;42.626;23.320;2022-07-05T01:08:15;6.50;;;4.82;;
39788;SDS011;25478;42.626;23.320;2022-07-05T01:10:41;6.63;;;4.90;;
39788;SDS011;25478;42.626;23.320;2022-07-05T01:13:07;7.45;;;5.35;;
39788;SDS011;25478;42.626;23.320;2022-07-05T01:15:34;8.93;;;4.95;;
39788;SDS011;25478;42.626;23.320;2022-07-05T01:17:59;6.78;;;5.00;;
39788;SDS011;25478;42.626;23.320;2022-07-05T01:20:25;6.53;;;4.55;;
39788;SDS011;25478;42.626;23.320;2022-07-05T01:22:55;6.50;;;4.78;;
39788;SDS011;25478;42.626;23.320;2022-07-05T01:25:22;7.03;;;4.93;;
39788;SDS011;25478;42.626;23.320;2022-07-05T01:27:49;8.70;;;5.07;;
39788;SDS011;25478;42.626;23.320;2022-07-05T01:30:15;7.57;;;4.82;;
39788;SDS011;25478;42.626;23.320;2022-07-05T01:32:42;8.13;;;4.70;;
39788;SDS011;25478;42.626;23.320;2022-07-05T01:35:09;9.75;;;5.30;;
39788;SDS011;25478;42.626;23.320;2022-07-05T01:37:35;8.93;;;5.13;;
39788;SDS011;25478;42.626;23.320;2022-07-05T01:40:02;7.80;;;5.88;;
39788;SDS011;25478;42.626;23.320;2022-07-05T01:42:29;7.47;;;5.10;;
39788;SDS011;25478;42.626;23.320;2022-07-05T01:44:55;9.68;;;5.63;;
39788;SDS011;25478;42.626;23.320;2022-07-05T01:47:21;8.40;;;5.47;;
39788;SDS011;25478;42.626;23.320;2022-07-05T01:49:48;7.65;;;5.20;;
39788;SDS011;25478;42.626;23.320;2022-07-05T01:52:19;8.68;;;5.70;;
39788;SDS011;25478;42.626;23.320;2022-07-05T01:54:46;6.32;;;5.30;;
39788;SDS011;25478;42.626;23.320;2022-07-05T01:57:12;9.10;;;5.63;;
39788;SDS011;25478;42.626;23.320;2022-07-05T01:59:38;9.00;;;5.60;;
39788;SDS011;25478;42.626;23.320;2022-07-05T02:02:04;9.15;;;5.65;;
39788;SDS011;25478;42.626;23.320;2022-07-05T02:04:31;8.63;;;6.35;;
39788;SDS011;25478;42.626;23.320;2022-07-05T02:06:58;8.80;;;5.95;;
39788;SDS011;25478;42.626;23.320;2022-07-05T02:09:24;8.40;;;5.30;;
39788;SDS011;25478;42.626;23.320;2022-07-05T02:11:50;9.95;;;5.97;;
39788;SDS011;25478;42.626;23.320;2022-07-05T02:14:16;8.70;;;5.80;;
39788;SDS011;25478;42.626;23.320;2022-07-05T02:16:43;8.85;;;6.20;;
39788;SDS011;25478;42.626;23.320;2022-07-05T02:19:09;13.35;;;6.32;;
39788;SDS011;25478;42.626;23.320;2022-07-05T02:21:38;10.38;;;6.35;;
39788;SDS011;25478;42.626;23.320;2022-07-05T02:24:08;7.72;;;6.38;;
39788;SDS011;25478;42.626;23.320;2022-07-05T02:26:39;8.25;;;6.07;;
39788;SDS011;25478;42.626;23.320;2022-07-05T02:29:06;9.65;;;7.38;;
39788;SDS011;25478;42.626;23.320;2022-07-05T02:31:33;8.68;;;5.70;;
39788;SDS011;25478;42.626;23.320;2022-07-05T02:34:01;9.05;;;6.65;;
39788;SDS011;25478;42.626;23.320;2022-07-05T02:36:26;7.90;;;6.25;;
39788;SDS011;25478;42.626;23.320;2022-07-05T02:38:52;11.45;;;6.53;;
39788;SDS011;25478;42.626;23.320;2022-07-05T02:41:18;9.57;;;6.40;;
39788;SDS011;25478;42.626;23.320;2022-07-05T02:43:47;8.70;;;6.70;;
39788;SDS011;25478;42.626;23.320;2022-07-05T02:46:16;9.85;;;6.10;;
39788;SDS011;25478;42.626;23.320;2022-07-05T02:48:42;8.68;;;6.38;;
39788;SDS011;25478;42.626;23.320;2022-07-05T02:51:07;8.32;;;6.75;;
39788;SDS011;25478;42.626;23.320;2022-07-05T02:53:33;10.27;;;6.53;;
39788;SDS011;25478;42.626;23.320;2022-07-05T02:56:01;9.38;;;6.90;;
39788;SDS011;25478;42.626;23.320;2022-07-05T02:58:27;10.85;;;7.22;;
39788;SDS011;25478;42.626;23.320;2022-07-05T03:00:53;8.82;;;6.40;;
39788;SDS011;25478;42.626;23.320;2022-07-05T03:03:20;8.65;;;6.55;;
39788;SDS011;25478;42.626;23.320;2022-07-05T03:05:46;8.48;;;6.90;;
39788;SDS011;25478;42.626;23.320;2022-07-05T03:08:12;8.23;;;7.00;;
39788;SDS011;25478;42.626;23.320;2022-07-05T03:10:39;9.98;;;7.25;;
39788;SDS011;25478;42.626;23.320;2022-07-05T03:13:06;8.68;;;6.80;;
39788;SDS011;25478;42.626;23.320;2022-07-05T03:15:32;10.73;;;6.82;;
39788;SDS011;25478;42.626;23.320;2022-07-05T03:17:59;10.32;;;6.97;;
39788;SDS011;25478;42.626;23.320;2022-07-05T03:20:27;8.48;;;6.75;;
39788;SDS011;25478;42.626;23.320;2022-07-05T03:22:54;8.77;;;7.03;;
39788;SDS011;25478;42.626;23.320;2022-07-05T03:25:25;8.50;;;6.60;;
39788;SDS011;25478;42.626;23.320;2022-07-05T03:27:51;10.80;;;7.07;;
39788;SDS011;25478;42.626;23.320;2022-07-05T03:30:17;8.70;;;6.05;;
39788;SDS011;25478;42.626;23.320;2022-07-05T03:32:43;8.73;;;6.43;;
39788;SDS011;25478;42.626;23.320;2022-07-05T03:35:09;8.43;;;6.40;;
39788;SDS011;25478;42.626;23.320;2022-07-05T03:37:35;9.23;;;6.40;;
39788;SDS011;25478;42.626;23.320;2022-07-05T03:40:01;10.60;;;6.78;;
39788;SDS011;25478;42.626;23.320;2022-07-05T03:42:26;8.80;;;6.35;;
39788;SDS011;25478;42.626;23.320;2022-07-05T03:44:53;10.80;;;6.80;;
39788;SDS011;25478;42.626;23.320;2022-07-05T03:47:19;9.75;;;6.80;;
39788;SDS011;25478;42.626;23.320;2022-07-05T03:49:45;9.27;;;6.80;;
39788;SDS011;25478;42.626;23.320;2022-07-05T03:52:12;12.38;;;6.38;;
39788;SDS011;25478;42.626;23.320;2022-07-05T03:54:37;8.80;;;6.43;;
39788;SDS011;25478;42.626;23.320;2022-07-05T03:57:05;9.02;;;6.30;;
39788;SDS011;25478;42.626;23.320;2022-07-05T03:59:30;9.02;;;6.80;;
39788;SDS011;25478;42.626;23.320;2022-07-05T04:01:56;9.48;;;6.07;;
39788;SDS011;25478;42.626;23.320;2022-07-05T04:04:21;8.95;;;5.97;;
39788;SDS011;25478;42.626;23.320;2022-07-05T04:06:47;8.27;;;5.80;;
39788;SDS011;25478;42.626;23.320;2022-07-05T04:09:13;7.78;;;6.00;;
39788;SDS011;25478;42.626;23.320;2022-07-05T04:11:39;8.90;;;6.20;;
39788;SDS011;25478;42.626;23.320;2022-07-05T04:14:04;8.05;;;6.13;;
39788;SDS011;25478;42.626;23.320;2022-07-05T04:16:30;8.93;;;6.38;;
39788;SDS011;25478;42.626;23.320;2022-07-05T04:18:57;9.13;;;5.65;;
39788;SDS011;25478;42.626;23.320;2022-07-05T04:21:25;7.10;;;5.20;;
39788;SDS011;25478;42.626;23.320;2022-07-05T04:23:51;11.13;;;5.60;;
39788;SDS011;25478;42.626;23.320;2022-07-05T04:26:19;8.75;;;5.38;;
39788;SDS011;25478;42.626;23.320;2022-07-05T04:28:45;7.82;;;5.50;;
39788;SDS011;25478;42.626;23.320;2022-07-05T04:31:16;8.90;;;5.38;;
39788;SDS011;25478;42.626;23.320;2022-07-05T04:33:45;8.95;;;4.93;;
39788;SDS011;25478;42.626;23.320;2022-07-05T04:36:14;8.18;;;4.97;;
39788;SDS011;25478;42.626;23.320;2022-07-05T04:38:40;7.78;;;5.45;;
39788;SDS011;25478;42.626;23.320;2022-07-05T04:41:06;8.05;;;5.65;;
39788;SDS011;25478;42.626;23.320;2022-07-05T04:43:34;9.50;;;5.47;;
39788;SDS011;25478;42.626;23.320;2022-07-05T04:46:02;11.48;;;5.85;;
39788;SDS011;25478;42.626;23.320;2022-07-05T04:48:27;10.98;;;5.75;;
39788;SDS011;25478;42.626;23.320;2022-07-05T04:50:53;10.43;;;5.90;;
39788;SDS011;25478;42.626;23.320;2022-07-05T04:53:20;9.35;;;5.82;;
39788;SDS011;25478;42.626;23.320;2022-07-05T04:55:45;9.98;;;6.30;;
39788;SDS011;25478;42.626;23.320;2022-07-05T04:58:11;8.88;;;5.68;;
39788;SDS011;25478;42.626;23.320;2022-07-05T05:00:36;10.68;;;5.57;;
39788;SDS011;25478;42.626;23.320;2022-07-05T05:03:02;9.23;;;5.40;;
39788;SDS011;25478;42.626;23.320;2022-07-05T05:05:27;11.25;;;6.32;;
39788;SDS011;25478;42.626;23.320;2022-07-05T05:07:53;12.43;;;5.82;;
39788;SDS011;25478;42.626;23.320;2022-07-05T05:10:19;11.68;;;6.15;;
39788;SDS011;25478;42.626;23.320;2022-07-05T05:12:44;9.82;;;6.07;;
39788;SDS011;25478;42.626;23.320;2022-07-05T05:15:10;9.95;;;6.30;;
39788;SDS011;25478;42.626;23.320;2022-07-05T05:17:39;11.55;;;6.10;;
39788;SDS011;25478;42.626;23.320;2022-07-05T05:20:07;12.30;;;5.78;;
39788;SDS011;25478;42.626;23.320;2022-07-05T05:22:36;11.93;;;6.20;;
39788;SDS011;25478;42.626;23.320;2022-07-05T05:25:02;9.07;;;5.90;;
39788;SDS011;25478;42.626;23.320;2022-07-05T05:27:28;11.18;;;6.28;;
39788;SDS011;25478;42.626;23.320;2022-07-05T05:29:54;9.80;;;5.65;;
39788;SDS011;25478;42.626;23.320;2022-07-05T05:32:20;9.85;;;5.32;;
39788;SDS011;25478;42.626;23.320;2022-07-05T05:34:45;8.88;;;5.65;;
39788;SDS011;25478;42.626;23.320;2022-07-05T05:37:11;7.43;;;4.95;;
39788;SDS011;25478;42.626;23.320;2022-07-05T05:39:36;10.80;;;5.93;;
39788;SDS011;25478;42.626;23.320;2022-07-05T05:42:02;11.60;;;5.35;;
39788;SDS011;25478;42.626;23.320;2022-07-05T05:44:28;11.43;;;5.75;;
39788;SDS011;25478;42.626;23.320;2022-07-05T05:46:53;10.48;;;5.30;;
39788;SDS011;25478;42.626;23.320;2022-07-05T05:49:19;8.55;;;5.40;;
39788;SDS011;25478;42.626;23.320;2022-07-05T05:51:44;9.93;;;5.53;;
39788;SDS011;25478;42.626;23.320;2022-07-05T05:54:10;14.32;;;5.63;;
39788;SDS011;25478;42.626;23.320;2022-07-05T05:56:35;9.88;;;5.50;;
39788;SDS011;25478;42.626;23.320;2022-07-05T05:59:01;8.80;;;5.72;;
39788;SDS011;25478;42.626;23.320;2022-07-05T06:01:26;10.25;;;5.47;;
39788;SDS011;25478;42.626;23.320;2022-07-05T06:03:52;9.65;;;6.28;;
39788;SDS011;25478;42.626;23.320;2022-07-05T06:06:17;11.00;;;5.70;;
39788;SDS011;25478;42.626;23.320;2022-07-05T06:08:43;14.43;;;5.70;;
39788;SDS011;25478;42.626;23.320;2022-07-05T06:11:08;8.90;;;5.57;;
39788;SDS011;25478;42.626;23.320;2022-07-05T06:13:34;11.85;;;6.18;;
39788;SDS011;25478;42.626;23.320;2022-07-05T06:15:59;8.75;;;4.63;;
39788;SDS011;25478;42.626;23.320;2022-07-05T06:18:25;9.43;;;5.57;;
39788;SDS011;25478;42.626;23.320;2022-07-05T06:20:50;9.02;;;4.60;;
39788;SDS011;25478;42.626;23.320;2022-07-05T06:23:16;7.18;;;4.90;;
39788;SDS011;25478;42.626;23.320;2022-07-05T06:25:41;10.80;;;5.50;;
39788;SDS011;25478;42.626;23.320;2022-07-05T06:28:08;9.32;;;4.85;;
39788;SDS011;25478;42.626;23.320;2022-07-05T06:30:35;11.50;;;5.55;;
39788;SDS011;25478;42.626;23.320;2022-07-05T06:33:02;11.15;;;5.10;;
39788;SDS011;25478;42.626;23.320;2022-07-05T06:35:28;10.77;;;5.30;;
39788;SDS011;25478;42.626;23.320;2022-07-05T06:40:29;10.50;;;5.32;;
39788;SDS011;25478;42.626;23.320;2022-07-05T06:42:57;11.20;;;5.43;;
39788;SDS011;25478;42.626;23.320;2022-07-05T06:45:30;15.13;;;6.07;;
39788;SDS011;25478;42.626;23.320;2022-07-05T06:47:56;9.57;;;5.40;;
39788;SDS011;25478;42.626;23.320;2022-07-05T06:50:23;11.25;;;5.38;;
39788;SDS011;25478;42.626;23.320;2022-07-05T06:52:50;10.20;;;4.90;;
39788;SDS011;25478;42.626;23.320;2022-07-05T06:55:15;10.63;;;5.30;;
39788;SDS011;25478;42.626;23.320;2022-07-05T06:57:41;8.55;;;5.07;;
39788;SDS011;25478;42.626;23.320;2022-07-05T07:00:08;10.85;;;5.40;;
39788;SDS011;25478;42.626;23.320;2022-07-05T07:02:35;12.52;;;5.90;;
39788;SDS011;25478;42.626;23.320;2022-07-05T07:05:01;7.88;;;5.15;;
39788;SDS011;25478;42.626;23.320;2022-07-05T07:07:26;10.50;;;5.25;;
39788;SDS011;25478;42.626;23.320;2022-07-05T07:10:10;10.80;;;5.25;;
39788;SDS011;25478;42.626;23.320;2022-07-05T07:12:36;11.85;;;5.05;;
39788;SDS011;25478;42.626;23.320;2022-07-05T07:15:01;9.18;;;5.38;;
39788;SDS011;25478;42.626;23.320;2022-07-05T07:17:27;10.85;;;5.10;;
39788;SDS011;25478;42.626;23.320;2022-07-05T07:19:53;11.63;;;5.72;;
39788;SDS011;25478;42.626;23.320;2022-07-05T07:22:18;13.68;;;5.65;;
39788;SDS011;25478;42.626;23.320;2022-07-05T07:24:44;8.95;;;5.97;;
39788;SDS011;25478;42.626;23.320;2022-07-05T07:27:09;10.93;;;5.70;;
39788;SDS011;25478;42.626;23.320;2022-07-05T07:29:35;9.45;;;4.97;;
39788;SDS011;25478;42.626;23.320;2022-07-05T07:32:02;10.77;;;5.25;;
39788;SDS011;25478;42.626;23.320;2022-07-05T07:34:28;9.52;;;5.25;;
39788;SDS011;25478;42.626;23.320;2022-07-05T07:36:55;9.60;;;5.60;;
39788;SDS011;25478;42.626;23.320;2022-07-05T07:39:21;10.27;;;5.70;;
39788;SDS011;25478;42.626;23.320;2022-07-05T07:41:47;7.95;;;5.55;;
39788;SDS011;25478;42.626;23.320;2022-07-05T07:44:13;8.82;;;5.97;;
39788;SDS011;25478;42.626;23.320;2022-07-05T07:46:39;9.40;;;5.78;;
39788;SDS011;25478;42.626;23.320;2022-07-05T07:49:05;10.88;;;5.70;;
39788;SDS011;25478;42.626;23.320;2022-07-05T07:51:31;12.43;;;5.85;;
39788;SDS011;25478;42.626;23.320;2022-07-05T07:53:57;10.95;;;5.97;;
39788;SDS011;25478;42.626;23.320;2022-07-05T07:56:23;12.70;;;6.47;;
39788;SDS011;25478;42.626;23.320;2022-07-05T07:58:49;12.32;;;6.07;;
39788;SDS011;25478;42.626;23.320;2022-07-05T08:01:14;11.13;;;6.00;;
39788;SDS011;25478;42.626;23.320;2022-07-05T08:03:40;13.10;;;6.15;;
39788;SDS011;25478;42.626;23.320;2022-07-05T08:06:09;10.55;;;6.35;;
39788;SDS011;25478;42.626;23.320;2022-07-05T08:08:39;11.73;;;6.60;;
39788;SDS011;25478;42.626;23.320;2022-07-05T08:11:08;11.43;;;6.03;;
39788;SDS011;25478;42.626;23.320;2022-07-05T08:13:34;11.57;;;6.00;;
39788;SDS011;25478;42.626;23.320;2022-07-05T08:16:00;8.05;;;5.88;;
39788;SDS011;25478;42.626;23.320;2022-07-05T08:18:27;10.48;;;6.10;;
39788;SDS011;25478;42.626;23.320;2022-07-05T08:21:11;9.00;;;5.90;;
39788;SDS011;25478;42.626;23.320;2022-07-05T08:23:55;11.35;;;6.88;;
39788;SDS011;25478;42.626;23.320;2022-07-05T08:26:21;10.57;;;6.50;;
39788;SDS011;25478;42.626;23.320;2022-07-05T08:28:46;8.52;;;6.40;;
39788;SDS011;25478;42.626;23.320;2022-07-05T08:31:12;10.75;;;6.13;;
39788;SDS011;25478;42.626;23.320;2022-07-05T08:33:38;14.55;;;6.78;;
39788;SDS011;25478;42.626;23.320;2022-07-05T08:36:04;9.00;;;6.25;;
39788;SDS011;25478;42.626;23.320;2022-07-05T08:38:30;13.48;;;8.68;;
39788;SDS011;25478;42.626;23.320;2022-07-05T08:40:56;12.32;;;7.13;;
39788;SDS011;25478;42.626;23.320;2022-07-05T08:43:22;19.77;;;14.60;;
39788;SDS011;25478;42.626;23.320;2022-07-05T08:45:49;11.77;;;6.65;;
39788;SDS011;25478;42.626;23.320;2022-07-05T08:48:18;11.27;;;6.80;;
39788;SDS011;25478;42.626;23.320;2022-07-05T08:50:45;12.20;;;6.03;;
39788;SDS011;25478;42.626;23.320;2022-07-05T08:53:13;10.00;;;5.20;;
39788;SDS011;25478;42.626;23.320;2022-07-05T08:55:40;9.77;;;5.75;;
39788;SDS011;25478;42.626;23.320;2022-07-05T08:58:06;11.00;;;5.88;;
39788;SDS011;25478;42.626;23.320;2022-07-05T09:00:32;9.25;;;5.97;;
39788;SDS011;25478;42.626;23.320;2022-07-05T09:02:57;11.38;;;6.13;;
39788;SDS011;25478;42.626;23.320;2022-07-05T09:05:24;11.13;;;6.15;;
39788;SDS011;25478;42.626;23.320;2022-07-05T09:08:00;10.95;;;6.22;;
39788;SDS011;25478;42.626;23.320;2022-07-05T09:10:27;9.95;;;6.10;;
39788;SDS011;25478;42.626;23.320;2022-07-05T09:12:56;14.68;;;6.65;;
39788;SDS011;25478;42.626;23.320;2022-07-05T09:15:22;8.32;;;6.20;;
39788;SDS011;25478;42.626;23.320;2022-07-05T09:17:49;9.32;;;5.32;;
39788;SDS011;25478;42.626;23.320;2022-07-05T09:20:15;8.75;;;5.60;;
39788;SDS011;25478;42.626;23.320;2022-07-05T09:22:49;10.73;;;5.95;;
39788;SDS011;25478;42.626;23.320;2022-07-05T09:35:36;8.55;;;5.72;;
39788;SDS011;25478;42.626;23.320;2022-07-05T09:38:05;10.02;;;5.63;;
39788;SDS011;25478;42.626;23.320;2022-07-05T09:40:45;15.93;;;6.07;;
39788;SDS011;25478;42.626;23.320;2022-07-05T09:43:13;10.35;;;6.05;;
39788;SDS011;25478;42.626;23.320;2022-07-05T09:45:40;10.32;;;5.90;;
39788;SDS011;25478;42.626;23.320;2022-07-05T09:48:14;9.43;;;6.20;;
39788;SDS011;25478;42.626;23.320;2022-07-05T09:50:40;10.63;;;5.82;;
39788;SDS011;25478;42.626;23.320;2022-07-05T09:53:06;11.23;;;6.20;;
39788;SDS011;25478;42.626;23.320;2022-07-05T09:55:31;9.48;;;5.70;;
39788;SDS011;25478;42.626;23.320;2022-07-05T09:57:58;8.35;;;5.95;;
39788;SDS011;25478;42.626;23.320;2022-07-05T10:00:23;8.88;;;6.13;;
39788;SDS011;25478;42.626;23.320;2022-07-05T10:02:50;10.43;;;6.10;;
39788;SDS011;25478;42.626;23.320;2022-07-05T10:05:18;7.90;;;5.65;;
39788;SDS011;25478;42.626;23.320;2022-07-05T10:07:54;8.23;;;5.90;;
39788;SDS011;25478;42.626;23.320;2022-07-05T10:10:22;7.75;;;5.60;;
39788;SDS011;25478;42.626;23.320;2022-07-05T10:15:32;8.88;;;5.90;;
39788;SDS011;25478;42.626;23.320;2022-07-05T10:18:03;10.38;;;6.22;;
39788;SDS011;25478;42.626;23.320;2022-07-05T10:20:32;7.32;;;6.10;;
39788;SDS011;25478;42.626;23.320;2022-07-05T10:23:13;10.15;;;6.10;;
39788;SDS011;25478;42.626;23.320;2022-07-05T10:25:40;7.35;;;5.90;;
39788;SDS011;25478;42.626;23.320;2022-07-05T10:28:08;9.55;;;6.00;;
39788;SDS011;25478;42.626;23.320;2022-07-05T10:30:34;10.27;;;6.28;;
39788;SDS011;25478;42.626;23.320;2022-07-05T10:33:03;7.85;;;5.90;;
39788;SDS011;25478;42.626;23.320;2022-07-05T10:35:31;7.40;;;5.70;;
39788;SDS011;25478;42.626;23.320;2022-07-05T10:38:00;8.90;;;5.97;;
39788;SDS011;25478;42.626;23.320;2022-07-05T10:40:28;8.07;;;6.00;;
39788;SDS011;25478;42.626;23.320;2022-07-05T10:43:00;7.72;;;5.80;;
39788;SDS011;25478;42.626;23.320;2022-07-05T10:45:31;9.23;;;6.13;;
39788;SDS011;25478;42.626;23.320;2022-07-05T10:53:27;7.78;;;5.93;;
39788;SDS011;25478;42.626;23.320;2022-07-05T10:55:58;6.78;;;5.82;;
39788;SDS011;25478;42.626;23.320;2022-07-05T11:04:24;9.10;;;6.32;;
39788;SDS011;25478;42.626;23.320;2022-07-05T11:06:31;9.07;;;5.65;;
39788;SDS011;25478;42.626;23.320;2022-07-05T11:11:34;6.53;;;5.57;;
39788;SDS011;25478;42.626;23.320;2022-07-05T11:14:00;11.10;;;6.38;;
39788;SDS011;25478;42.626;23.320;2022-07-05T11:16:31;7.93;;;5.93;;
39788;SDS011;25478;42.626;23.320;2022-07-05T11:19:10;7.15;;;6.13;;
39788;SDS011;25478;42.626;23.320;2022-07-05T11:21:37;9.57;;;6.05;;
39788;SDS011;25478;42.626;23.320;2022-07-05T11:26:49;10.10;;;6.60;;
39788;SDS011;25478;42.626;23.320;2022-07-05T11:34:38;11.10;;;6.40;;
39788;SDS011;25478;42.626;23.320;2022-07-05T11:42:29;9.43;;;6.05;;
39788;SDS011;25478;42.626;23.320;2022-07-05T11:44:55;8.00;;;6.20;;
39788;SDS011;25478;42.626;23.320;2022-07-05T11:47:22;8.02;;;5.93;;
39788;SDS011;25478;42.626;23.320;2022-07-05T11:49:54;9.55;;;6.43;;
39788;SDS011;25478;42.626;23.320;2022-07-05T11:52:28;9.10;;;6.28;;
39788;SDS011;25478;42.626;23.320;2022-07-05T11:54:58;7.47;;;6.32;;
39788;SDS011;25478;42.626;23.320;2022-07-05T11:57:25;8.82;;;5.75;;
39788;SDS011;25478;42.626;23.320;2022-07-05T11:59:50;9.30;;;5.65;;
39788;SDS011;25478;42.626;23.320;2022-07-05T12:02:17;7.10;;;5.22;;
39788;SDS011;25478;42.626;23.320;2022-07-05T12:05:01;8.60;;;5.45;;
39788;SDS011;25478;42.626;23.320;2022-07-05T12:07:28;8.57;;;5.78;;
39788;SDS011;25478;42.626;23.320;2022-07-05T12:09:53;6.75;;;5.47;;
39788;SDS011;25478;42.626;23.320;2022-07-05T12:12:37;9.55;;;5.93;;
39788;SDS011;25478;42.626;23.320;2022-07-05T12:17:46;6.63;;;5.72;;
39788;SDS011;25478;42.626;23.320;2022-07-05T12:20:13;7.43;;;5.78;;
39788;SDS011;25478;42.626;23.320;2022-07-05T12:22:45;6.60;;;5.90;;
39788;SDS011;25478;42.626;23.320;2022-07-05T12:25:11;10.88;;;6.03;;
39788;SDS011;25478;42.626;23.320;2022-07-05T12:27:40;9.20;;;6.00;;
39788;SDS011;25478;42.626;23.320;2022-07-05T12:30:06;8.32;;;6.22;;
39788;SDS011;25478;42.626;23.320;2022-07-05T12:32:36;8.82;;;5.78;;
39788;SDS011;25478;42.626;23.320;2022-07-05T12:38:04;6.90;;;5.90;;
39788;SDS011;25478;42.626;23.320;2022-07-05T12:40:31;7.38;;;5.63;;
39788;SDS011;25478;42.626;23.320;2022-07-05T12:43:10;7.93;;;6.03;;
39788;SDS011;25478;42.626;23.320;2022-07-05T12:45:38;8.18;;;6.32;;
39788;SDS011;25478;42.626;23.320;2022-07-05T12:48:06;8.25;;;6.35;;
39788;SDS011;25478;42.626;23.320;2022-07-05T12:50:47;8.27;;;5.93;;
39788;SDS011;25478;42.626;23.320;2022-07-05T12:53:14;8.40;;;5.90;;
39788;SDS011;25478;42.626;23.320;2022-07-05T12:56:00;7.40;;;6.13;;
39788;SDS011;25478;42.626;23.320;2022-07-05T12:58:48;10.18;;;6.38;;
39788;SDS011;25478;42.626;23.320;2022-07-05T13:01:18;9.30;;;6.25;;
39788;SDS011;25478;42.626;23.320;2022-07-05T13:03:54;7.60;;;6.10;;
39788;SDS011;25478;42.626;23.320;2022-07-05T13:09:13;9.23;;;6.40;;
39788;SDS011;25478;42.626;23.320;2022-07-05T13:11:41;9.88;;;6.07;;
39788;SDS011;25478;42.626;23.320;2022-07-05T13:14:07;8.68;;;6.32;;
39788;SDS011;25478;42.626;23.320;2022-07-05T13:16:33;8.70;;;6.43;;
39788;SDS011;25478;42.626;23.320;2022-07-05T13:19:08;8.32;;;6.28;;
39788;SDS011;25478;42.626;23.320;2022-07-05T13:21:37;8.90;;;6.43;;
39788;SDS011;25478;42.626;23.320;2022-07-05T13:24:03;8.63;;;6.40;;
39788;SDS011;25478;42.626;23.320;2022-07-05T13:26:30;8.32;;;6.22;;
39788;SDS011;25478;42.626;23.320;2022-07-05T13:28:55;9.38;;;6.05;;
39788;SDS011;25478;42.626;23.320;2022-07-05T13:31:21;9.40;;;6.43;;
39788;SDS011;25478;42.626;23.320;2022-07-05T13:33:46;9.40;;;6.55;;
39788;SDS011;25478;42.626;23.320;2022-07-05T13:36:12;12.43;;;6.70;;
39788;SDS011;25478;42.626;23.320;2022-07-05T13:38:37;8.75;;;6.32;;
39788;SDS011;25478;42.626;23.320;2022-07-05T13:41:03;9.35;;;6.57;;
39788;SDS011;25478;42.626;23.320;2022-07-05T13:43:28;9.45;;;6.35;;
39788;SDS011;25478;42.626;23.320;2022-07-05T13:45:54;8.23;;;6.38;;
39788;SDS011;25478;42.626;23.320;2022-07-05T13:48:19;8.02;;;5.95;;
39788;SDS011;25478;42.626;23.320;2022-07-05T13:50:45;8.27;;;6.50;;
39788;SDS011;25478;42.626;23.320;2022-07-05T13:53:10;10.13;;;6.55;;
39788;SDS011;25478;42.626;23.320;2022-07-05T13:55:36;7.57;;;6.35;;
39788;SDS011;25478;42.626;23.320;2022-07-05T13:58:01;9.13;;;6.90;;
39788;SDS011;25478;42.626;23.320;2022-07-05T14:00:27;9.38;;;6.20;;
39788;SDS011;25478;42.626;23.320;2022-07-05T14:02:52;8.40;;;6.68;;
39788;SDS011;25478;42.626;23.320;2022-07-05T14:05:18;7.60;;;6.20;;
39788;SDS011;25478;42.626;23.320;2022-07-05T14:07:46;8.75;;;6.30;;
39788;SDS011;25478;42.626;23.320;2022-07-05T14:10:14;8.57;;;6.00;;
39788;SDS011;25478;42.626;23.320;2022-07-05T14:12:40;7.63;;;6.22;;
39788;SDS011;25478;42.626;23.320;2022-07-05T14:15:06;8.15;;;6.40;;
39788;SDS011;25478;42.626;23.320;2022-07-05T14:17:33;8.43;;;6.45;;
39788;SDS011;25478;42.626;23.320;2022-07-05T14:19:58;9.85;;;6.50;;
39788;SDS011;25478;42.626;23.320;2022-07-05T14:22:24;10.57;;;7.03;;
39788;SDS011;25478;42.626;23.320;2022-07-05T14:24:50;8.20;;;7.03;;
39788;SDS011;25478;42.626;23.320;2022-07-05T14:27:15;7.55;;;6.40;;
39788;SDS011;25478;42.626;23.320;2022-07-05T14:29:41;7.93;;;6.70;;
39788;SDS011;25478;42.626;23.320;2022-07-05T14:32:06;7.90;;;6.30;;
39788;SDS011;25478;42.626;23.320;2022-07-05T14:34:33;7.75;;;6.30;;
39788;SDS011;25478;42.626;23.320;2022-07-05T14:36:58;7.15;;;5.65;;
39788;SDS011;25478;42.626;23.320;2022-07-05T14:39:24;8.88;;;6.30;;
39788;SDS011;25478;42.626;23.320;2022-07-05T14:41:50;8.18;;;5.95;;
39788;SDS011;25478;42.626;23.320;2022-07-05T14:44:16;8.38;;;6.07;;
39788;SDS011;25478;42.626;23.320;2022-07-05T14:46:41;10.85;;;6.20;;
39788;SDS011;25478;42.626;23.320;2022-07-05T14:49:07;8.77;;;6.07;;
39788;SDS011;25478;42.626;23.320;2022-07-05T14:51:32;8.70;;;6.32;;
39788;SDS011;25478;42.626;23.320;2022-07-05T14:53:58;11.30;;;6.25;;
39788;SDS011;25478;42.626;23.320;2022-07-05T14:56:23;8.65;;;6.43;;
39788;SDS011;25478;42.626;23.320;2022-07-05T14:58:49;8.25;;;6.15;;
39788;SDS011;25478;42.626;23.320;2022-07-05T15:01:14;9.68;;;6.47;;
39788;SDS011;25478;42.626;23.320;2022-07-05T15:03:40;8.80;;;6.20;;
39788;SDS011;25478;42.626;23.320;2022-07-05T15:06:06;8.20;;;6.25;;
39788;SDS011;25478;42.626;23.320;2022-07-05T15:08:32;6.95;;;5.93;;
39788;SDS011;25478;42.626;23.320;2022-07-05T15:10:58;9.85;;;5.82;;
39788;SDS011;25478;42.626;23.320;2022-07-05T15:13:24;10.38;;;5.53;;
39788;SDS011;25478;42.626;23.320;2022-07-05T15:15:51;8.25;;;5.45;;
39788;SDS011;25478;42.626;23.320;2022-07-05T15:18:17;6.85;;;5.65;;
39788;SDS011;25478;42.626;23.320;2022-07-05T15:20:43;6.32;;;5.45;;
39788;SDS011;25478;42.626;23.320;2022-07-05T15:23:08;7.88;;;5.43;;